Time;durP1;ratioP1;P1;durP2;ratioP2;P2;SDS_P1;SDS_P2;PMS_P1;PMS_P2;Temp;Humidity;BMP_temperature;BMP_pressure;BME280_temperature;BME280_humidity;BME280_pressure;Samples;Min_cycle;Max_cycle;Signal;HPM_P1;HPM_P2
2022/05/02 00:00:24;;;;;;;14.70;9.10;;;8.00;99.90;;;;;;5066120;28;20236;-86
2022/05/02 00:02:52;;;;;;;17.33;10.40;;;7.90;99.90;;;;;;5066231;28;20227;-84
2022/05/02 00:05:19;;;;;;;14.07;10.03;;;7.90;99.90;;;;;;5068148;28;20205;-85
2022/05/02 00:07:46;;;;;;;14.47;9.87;;;7.90;99.90;;;;;;5060378;28;20205;-85
2022/05/02 00:10:14;;;;;;;16.07;10.77;;;7.90;99.90;;;;;;5064222;28;20250;-85
2022/05/02 00:12:41;;;;;;;19.00;11.03;;;7.90;99.90;;;;;;5065986;28;20239;-85
2022/05/02 00:15:08;;;;;;;13.57;9.90;;;7.90;99.90;;;;;;5064876;28;20212;-85
2022/05/02 00:20:26;;;;;;;15.97;10.70;;;7.80;99.90;;;;;;5061794;28;20749;-84
2022/05/02 00:22:53;;;;;;;21.50;10.67;;;7.70;99.90;;;;;;5065141;28;20200;-84
2022/05/02 00:25:20;;;;;;;18.63;10.23;;;7.70;99.90;;;;;;5065713;28;20238;-86
2022/05/02 00:27:47;;;;;;;17.23;10.63;;;7.70;99.90;;;;;;5069439;28;20215;-85
2022/05/02 00:30:15;;;;;;;15.27;11.00;;;7.70;99.90;;;;;;5068593;28;20228;-86
2022/05/02 00:32:43;;;;;;;18.70;10.20;;;7.60;99.90;;;;;;5051997;28;20242;-88
2022/05/02 00:35:10;;;;;;;16.40;10.80;;;7.60;99.90;;;;;;5075667;28;20203;-83
2022/05/02 00:37:38;;;;;;;16.67;10.27;;;7.60;99.90;;;;;;5074258;28;20298;-85
2022/05/02 00:40:07;;;;;;;15.63;10.40;;;7.60;99.90;;;;;;5050687;28;20247;-87
2022/05/02 00:42:36;;;;;;;16.50;11.20;;;7.50;99.90;;;;;;5068436;28;20229;-85
2022/05/02 00:45:08;;;;;;;17.83;11.10;;;7.50;99.90;;;;;;5051385;28;20204;-86
2022/05/02 00:47:35;;;;;;;15.63;10.17;;;7.50;99.90;;;;;;5067282;28;20219;-86
2022/05/02 00:50:07;;;;;;;18.20;10.67;;;7.40;99.90;;;;;;5068656;28;20230;-86
2022/05/02 00:52:34;;;;;;;17.33;10.10;;;7.40;99.90;;;;;;5062603;28;20243;-87
2022/05/02 00:55:04;;;;;;;15.50;9.57;;;7.40;99.90;;;;;;5048432;28;20656;-85
2022/05/02 00:57:33;;;;;;;17.77;10.37;;;7.30;99.90;;;;;;5048575;28;20209;-86
2022/05/02 01:00:03;;;;;;;18.90;10.33;;;7.30;99.90;;;;;;5065733;28;20197;-85
2022/05/02 01:02:30;;;;;;;16.97;10.47;;;7.20;99.90;;;;;;5068701;28;20210;-86
2022/05/02 01:04:57;;;;;;;19.00;11.27;;;7.20;99.90;;;;;;5068430;28;20337;-87
2022/05/02 01:07:23;;;;;;;16.87;11.10;;;7.10;99.90;;;;;;5063644;28;20215;-85
2022/05/02 01:09:52;;;;;;;16.97;11.03;;;7.10;99.90;;;;;;5062525;28;20245;-85
2022/05/02 01:12:22;;;;;;;15.77;10.40;;;7.10;99.90;;;;;;5047413;28;20267;-85
2022/05/02 01:14:51;;;;;;;14.33;9.43;;;7.00;99.90;;;;;;5051626;28;20277;-85
2022/05/02 01:17:18;;;;;;;17.90;10.17;;;7.00;99.90;;;;;;5068108;28;20251;-85
2022/05/02 01:19:46;;;;;;;22.00;11.23;;;6.90;99.90;;;;;;5073137;28;20216;-83
2022/05/02 01:22:13;;;;;;;16.57;9.63;;;6.90;99.90;;;;;;5073418;28;20233;-85
2022/05/02 01:24:43;;;;;;;16.20;10.70;;;6.80;99.90;;;;;;5069658;28;20214;-83
2022/05/02 01:27:12;;;;;;;14.67;9.57;;;6.80;99.90;;;;;;5068820;28;20207;-84
2022/05/02 01:29:42;;;;;;;14.47;9.33;;;6.80;99.90;;;;;;5069190;28;20206;-83
2022/05/02 01:32:11;;;;;;;15.10;9.07;;;6.80;99.90;;;;;;5066465;28;20233;-84
2022/05/02 01:34:42;;;;;;;16.47;10.23;;;6.80;99.90;;;;;;5069073;28;20231;-84
2022/05/02 01:37:12;;;;;;;15.07;9.57;;;6.70;99.90;;;;;;5051556;28;20213;-85
2022/05/02 01:39:40;;;;;;;15.33;9.67;;;6.70;99.90;;;;;;5067903;28;20251;-84
2022/05/02 01:42:09;;;;;;;14.93;9.27;;;6.60;99.90;;;;;;5070899;28;20665;-85
2022/05/02 01:44:38;;;;;;;15.90;10.10;;;6.60;99.90;;;;;;5066088;28;20297;-84
2022/05/02 01:47:08;;;;;;;13.60;8.97;;;6.60;99.90;;;;;;5064333;28;20202;-86
2022/05/02 01:49:38;;;;;;;17.27;9.43;;;6.50;99.90;;;;;;5054395;28;20210;-87
2022/05/02 01:52:06;;;;;;;18.33;9.93;;;6.50;99.90;;;;;;5070310;28;20252;-83
2022/05/02 01:54:32;;;;;;;19.30;9.77;;;6.50;99.90;;;;;;5067623;28;20238;-81
2022/05/02 01:56:59;;;;;;;15.20;9.67;;;6.50;99.90;;;;;;5069765;28;20221;-84
2022/05/02 01:59:26;;;;;;;17.17;10.07;;;6.50;99.90;;;;;;5066878;28;20309;-84
2022/05/02 02:01:53;;;;;;;18.50;9.77;;;6.40;99.90;;;;;;5051176;28;20676;-84
2022/05/02 02:07:06;;;;;;;15.00;9.67;;;6.40;99.90;;;;;;5064850;28;20204;-84
2022/05/02 02:09:32;;;;;;;15.70;10.00;;;6.30;99.90;;;;;;5047050;28;20302;-83
2022/05/02 02:11:59;;;;;;;16.43;10.30;;;6.30;99.90;;;;;;5051116;28;20272;-83
2022/05/02 02:14:26;;;;;;;15.70;9.77;;;6.30;99.90;;;;;;5068820;28;20245;-84
2022/05/02 02:16:53;;;;;;;17.17;9.97;;;6.30;99.90;;;;;;5068466;28;20651;-86
2022/05/02 02:19:20;;;;;;;17.43;10.07;;;6.30;99.90;;;;;;5050937;28;20204;-84
2022/05/02 02:21:47;;;;;;;16.07;10.27;;;6.30;99.90;;;;;;5069897;28;20214;-84
2022/05/02 02:24:14;;;;;;;17.60;10.00;;;6.30;99.90;;;;;;5051828;28;20276;-84
2022/05/02 02:26:41;;;;;;;15.60;9.67;;;6.20;99.90;;;;;;5068178;28;20241;-85
2022/05/02 02:29:07;;;;;;;17.93;10.17;;;6.20;99.90;;;;;;5045524;28;20561;-84
2022/05/02 02:31:34;;;;;;;22.73;10.50;;;6.20;99.90;;;;;;5058918;28;20638;-84
2022/05/02 02:34:01;;;;;;;15.73;10.07;;;6.10;99.90;;;;;;5064224;28;20201;-85
2022/05/02 02:36:28;;;;;;;16.17;10.77;;;6.10;99.90;;;;;;5055783;28;20225;-84
2022/05/02 02:38:55;;;;;;;15.37;9.50;;;6.00;99.90;;;;;;5060937;28;20557;-85
2022/05/02 02:41:22;;;;;;;17.73;10.90;;;6.00;99.90;;;;;;5067579;28;20268;-84
2022/05/02 02:43:49;;;;;;;21.03;10.77;;;6.00;99.90;;;;;;5067709;28;20257;-83
2022/05/02 02:46:16;;;;;;;18.77;10.87;;;6.00;99.90;;;;;;5050332;28;20687;-83
2022/05/02 02:48:43;;;;;;;18.13;10.10;;;5.90;99.90;;;;;;5066774;28;20205;-83
2022/05/02 02:51:10;;;;;;;14.67;9.30;;;5.90;99.90;;;;;;5066681;28;20260;-84
2022/05/02 02:53:36;;;;;;;18.63;11.03;;;6.00;99.90;;;;;;5047906;28;20215;-84
2022/05/02 02:56:03;;;;;;;18.53;10.63;;;5.90;99.90;;;;;;5078769;28;20208;-84
2022/05/02 02:58:30;;;;;;;18.80;10.70;;;5.90;99.90;;;;;;5079691;28;20203;-84
2022/05/02 03:00:57;;;;;;;17.30;10.43;;;5.80;99.90;;;;;;5072224;28;20743;-83
2022/05/02 03:03:24;;;;;;;17.30;11.07;;;5.80;99.90;;;;;;5068645;28;20677;-84
2022/05/02 03:06:03;;;;;;;17.03;10.27;;;5.80;99.90;;;;;;5072441;28;20272;-84
2022/05/02 03:08:33;;;;;;;15.03;10.00;;;5.70;99.90;;;;;;5065692;28;20274;-84
2022/05/02 03:11:01;;;;;;;18.87;11.00;;;5.70;99.90;;;;;;5062874;28;20293;-85
2022/05/02 03:13:28;;;;;;;18.93;10.73;;;5.70;99.90;;;;;;5080449;28;20210;-84
2022/05/02 03:15:56;;;;;;;19.73;11.10;;;5.60;99.90;;;;;;5076851;28;20201;-84
2022/05/02 03:18:25;;;;;;;17.80;9.80;;;5.60;99.90;;;;;;5082704;28;20297;-83
2022/05/02 03:20:52;;;;;;;16.07;10.27;;;5.50;99.90;;;;;;5080871;28;20238;-84
2022/05/02 03:23:20;;;;;;;18.17;11.20;;;5.50;99.90;;;;;;5072506;28;20666;-83
2022/05/02 03:25:47;;;;;;;18.63;11.00;;;5.50;99.90;;;;;;5069663;28;20193;-85
2022/05/02 03:28:13;;;;;;;18.73;10.60;;;5.40;99.90;;;;;;5052985;28;20279;-85
2022/05/02 03:30:41;;;;;;;17.90;11.43;;;5.40;99.90;;;;;;5064405;28;20610;-86
2022/05/02 03:33:07;;;;;;;18.20;9.83;;;5.40;99.90;;;;;;5074520;28;20217;-85
2022/05/02 03:35:34;;;;;;;20.73;12.70;;;5.40;99.90;;;;;;5065828;28;20264;-83
2022/05/02 03:38:01;;;;;;;19.07;10.20;;;5.40;99.90;;;;;;5067655;28;20336;-85
2022/05/02 03:40:28;;;;;;;20.87;11.63;;;5.30;99.90;;;;;;5060298;28;20238;-85
2022/05/02 03:42:55;;;;;;;20.37;12.10;;;5.30;99.90;;;;;;5070832;28;20229;-83
2022/05/02 03:45:22;;;;;;;18.77;11.33;;;5.10;99.90;;;;;;5069464;28;20233;-86
2022/05/02 03:47:48;;;;;;;19.30;11.30;;;5.30;99.90;;;;;;5069840;28;20248;-83
2022/05/02 03:50:16;;;;;;;18.50;11.27;;;5.20;99.90;;;;;;5051355;28;20613;-84
2022/05/02 03:52:43;;;;;;;19.30;11.53;;;5.20;99.90;;;;;;5069138;28;20265;-84
2022/05/02 03:55:10;;;;;;;23.27;12.20;;;5.20;99.90;;;;;;5063293;28;20252;-85
2022/05/02 03:57:38;;;;;;;22.80;11.10;;;5.20;99.90;;;;;;5064733;28;20658;-84
2022/05/02 04:00:06;;;;;;;18.90;10.57;;;5.10;99.90;;;;;;5049410;28;20659;-85
2022/05/02 04:02:33;;;;;;;20.43;12.03;;;5.10;99.90;;;;;;5070020;28;20216;-84
2022/05/02 04:05:01;;;;;;;20.47;12.13;;;5.10;99.90;;;;;;5075219;28;20259;-84
2022/05/02 04:07:27;;;;;;;22.27;11.10;;;5.10;99.90;;;;;;5060778;28;20202;-84
2022/05/02 04:09:54;;;;;;;23.07;11.53;;;5.10;99.90;;;;;;5067377;28;20253;-84
2022/05/02 04:12:21;;;;;;;18.77;12.07;;;5.10;99.90;;;;;;5070747;28;20232;-86
2022/05/02 04:14:49;;;;;;;18.40;10.73;;;5.00;99.90;;;;;;5048584;28;20205;-84
2022/05/02 04:17:16;;;;;;;18.63;11.30;;;5.00;99.90;;;;;;5036493;28;20226;-84
2022/05/02 04:19:43;;;;;;;22.23;11.33;;;5.00;99.90;;;;;;5067240;28;20201;-86
2022/05/02 04:22:10;;;;;;;18.77;11.40;;;5.00;99.90;;;;;;5062557;28;20232;-86
2022/05/02 04:24:37;;;;;;;23.03;12.87;;;4.90;99.90;;;;;;5047186;28;20229;-85
2022/05/02 04:27:04;;;;;;;18.53;11.77;;;4.90;99.90;;;;;;5063992;28;20236;-85
2022/05/02 04:29:31;;;;;;;18.80;11.67;;;5.00;99.90;;;;;;5069856;28;20271;-84
2022/05/02 04:32:00;;;;;;;18.93;11.37;;;5.00;99.90;;;;;;5066516;28;20572;-84
2022/05/02 04:34:27;;;;;;;20.43;12.53;;;4.90;99.90;;;;;;5069099;28;20201;-85
2022/05/02 04:36:54;;;;;;;20.73;12.20;;;5.00;99.90;;;;;;5061377;28;20215;-84
2022/05/02 04:39:20;;;;;;;22.77;12.30;;;5.00;99.90;;;;;;5065626;28;20201;-83
2022/05/02 04:41:47;;;;;;;22.60;13.10;;;5.00;99.90;;;;;;5060460;28;20240;-85
2022/05/02 04:44:14;;;;;;;24.43;11.80;;;5.10;99.90;;;;;;5051263;28;20274;-84
2022/05/02 04:46:40;;;;;;;20.83;12.57;;;5.10;99.90;;;;;;5068475;28;20205;-85
2022/05/02 04:49:07;;;;;;;19.77;11.67;;;5.10;99.90;;;;;;5069751;28;20389;-86
2022/05/02 04:51:34;;;;;;;22.33;12.17;;;5.20;99.90;;;;;;5076263;28;20364;-84
2022/05/02 04:54:01;;;;;;;23.00;12.37;;;5.20;99.90;;;;;;5071959;28;20208;-85
2022/05/02 04:56:28;;;;;;;22.07;12.77;;;5.20;99.90;;;;;;5074396;28;20206;-85
2022/05/02 04:58:55;;;;;;;23.27;12.80;;;5.30;99.90;;;;;;5074305;28;20776;-85
2022/05/02 05:01:22;;;;;;;21.40;12.43;;;5.40;99.90;;;;;;5074582;28;20201;-85
2022/05/02 05:03:49;;;;;;;21.00;13.07;;;5.40;99.90;;;;;;5077931;28;20210;-86
2022/05/02 05:06:16;;;;;;;24.43;12.63;;;5.40;99.90;;;;;;5063077;28;20214;-84
2022/05/02 05:08:43;;;;;;;23.03;13.43;;;5.50;99.90;;;;;;5073973;28;20728;-85
2022/05/02 05:11:29;;;;;;;26.33;13.07;;;5.50;99.90;;;;;;5073108;28;20233;-85
2022/05/02 05:17:43;;;;;;;25.17;12.33;;;5.60;99.90;;;;;;5064619;28;20217;-84
2022/05/02 05:20:29;;;;;;;20.93;13.13;;;5.70;99.90;;;;;;5068035;28;20203;-83
2022/05/02 05:23:17;;;;;;;20.50;12.43;;;5.80;99.90;;;;;;5069098;28;20209;-85
2022/05/02 05:25:47;;;;;;;22.37;13.30;;;5.80;99.90;;;;;;5063692;28;20252;-85
2022/05/02 05:28:50;;;;;;;23.73;13.03;;;5.90;99.90;;;;;;5067334;28;20212;-86
2022/05/02 05:31:36;;;;;;;29.23;14.03;;;6.00;99.90;;;;;;5066199;28;20304;-85
2022/05/02 05:34:37;;;;;;;24.47;13.73;;;6.10;99.90;;;;;;5066666;28;20210;-84
2022/05/02 05:37:29;;;;;;;24.50;13.63;;;6.20;99.90;;;;;;5064861;28;20232;-86
2022/05/02 05:39:58;;;;;;;23.43;14.20;;;6.30;99.90;;;;;;5046495;28;20205;-84
2022/05/02 05:42:45;;;;;;;27.10;14.53;;;6.40;99.90;;;;;;5051127;28;20209;-84
2022/05/02 05:45:22;;;;;;;25.83;14.83;;;6.50;99.90;;;;;;5062627;28;20257;-84
2022/05/02 05:48:06;;;;;;;25.50;14.03;;;6.60;99.90;;;;;;5061947;28;20296;-82
2022/05/02 05:50:40;;;;;;;23.60;14.00;;;6.60;99.90;;;;;;5065440;28;20216;-83
2022/05/02 05:53:32;;;;;;;23.97;13.33;;;6.70;99.90;;;;;;5058299;28;20279;-82
2022/05/02 05:56:32;;;;;;;29.53;15.93;;;6.80;99.90;;;;;;5060607;28;20201;-82
2022/05/02 05:59:19;;;;;;;26.47;15.17;;;;;;;;;;5061321;28;20206;-83
2022/05/02 06:02:06;;;;;;;19.30;12.13;;;8.20;99.90;;;;;;5064672;28;20214;-83
2022/05/02 06:04:36;;;;;;;21.33;11.23;;;9.40;99.90;;;;;;5059754;28;20240;-82
2022/05/02 06:07:03;;;;;;;14.63;10.63;;;10.50;99.90;;;;;;5067984;28;20204;-83
2022/05/02 06:09:32;;;;;;;18.87;10.60;;;11.50;99.90;;;;;;5049474;28;20663;-82
2022/05/02 06:12:01;;;;;;;14.63;10.00;;;12.50;99.90;;;;;;5065417;28;20231;-84
2022/05/02 06:14:34;;;;;;;14.03;10.07;;;13.30;99.90;;;;;;5049942;28;20714;-85
2022/05/02 06:19:50;;;;;;;12.97;10.07;;;14.60;99.90;;;;;;5059136;28;20208;-82
2022/05/02 06:22:18;;;;;;;15.65;10.20;;;15.30;99.90;;;;;;5062257;28;20618;-84
2022/05/02 06:24:47;;;;;;;21.23;11.00;;;16.00;99.90;;;;;;5063437;28;20213;-84
2022/05/02 06:27:14;;;;;;;28.95;10.27;;;16.60;99.90;;;;;;5069852;28;20208;-84
2022/05/02 06:29:42;;;;;;;19.92;10.13;;;17.20;99.90;;;;;;5054661;28;20266;-85
2022/05/02 06:32:11;;;;;;;17.30;9.55;;;17.60;99.90;;;;;;5072355;28;20317;-84
2022/05/02 06:34:39;;;;;;;14.18;9.60;;;18.10;99.90;;;;;;5071965;28;20614;-83
2022/05/02 06:37:39;;;;;;;19.15;9.60;;;18.70;99.90;;;;;;5069503;28;20222;-84
2022/05/02 06:40:09;;;;;;;12.82;9.27;;;19.30;99.90;;;;;;5032689;28;20629;-85
2022/05/02 06:42:51;;;;;;;11.32;9.00;;;19.90;99.90;;;;;;5071672;28;20795;-82
2022/05/02 06:45:36;;;;;;;11.77;8.85;;;20.20;99.90;;;;;;5065438;28;20232;-86
2022/05/02 06:48:34;;;;;;;12.40;9.05;;;20.30;99.90;;;;;;5052515;28;20301;-83
2022/05/02 06:51:08;;;;;;;10.90;9.38;;;20.00;98.80;;;;;;5047740;28;20204;-82
2022/05/02 06:53:53;;;;;;;12.23;9.57;;;19.90;99.90;;;;;;5048981;28;20692;-82
2022/05/02 06:56:46;;;;;;;15.05;9.85;;;19.60;99.90;;;;;;5070110;28;20204;-83
2022/05/02 06:59:40;;;;;;;12.82;9.35;;;19.60;99.60;;;;;;5067614;28;20205;-87
2022/05/02 07:02:32;;;;;;;10.43;9.27;;;19.90;99.20;;;;;;5051147;28;20268;-85
2022/05/02 07:05:05;;;;;;;12.98;9.38;;;20.10;98.50;;;;;;5042554;28;20208;-85
2022/05/02 07:07:40;;;;;;;11.27;9.57;;;19.90;98.30;;;;;;5060621;28;20743;-84
2022/05/02 07:10:22;;;;;;;12.63;9.13;;;19.80;99.10;;;;;;5039137;28;20693;-86
2022/05/02 07:13:16;;;;;;;12.75;9.10;;;20.20;99.00;;;;;;5069512;28;20259;-85
2022/05/02 07:15:57;;;;;;;13.82;8.98;;;20.70;97.50;;;;;;5049250;28;20688;-85
2022/05/02 07:18:49;;;;;;;16.50;9.80;;;20.50;97.90;;;;;;5071958;28;20224;-85
2022/05/02 07:21:46;;;;;;;14.23;9.27;;;20.90;96.20;;;;;;5061204;28;20259;-84
2022/05/02 07:24:21;;;;;;;11.57;8.48;;;21.00;95.60;;;;;;5065197;28;20208;-84
2022/05/02 07:27:04;;;;;;;12.07;9.43;;;21.30;96.20;;;;;;5067303;28;20212;-84
2022/05/02 07:29:34;;;;;;;13.73;9.77;;;21.50;94.60;;;;;;5070962;28;20205;-85
2022/05/02 07:32:03;;;;;;;13.93;9.30;;;21.30;95.50;;;;;;5070615;28;20232;-85
2022/05/02 07:34:31;;;;;;;10.48;8.60;;;21.40;94.80;;;;;;5051566;28;20274;-86
2022/05/02 07:36:59;;;;;;;13.13;8.40;;;21.10;94.40;;;;;;5087055;28;20221;-84
2022/05/02 07:39:28;;;;;;;9.98;8.43;;;20.80;94.40;;;;;;5073275;28;20200;-84
2022/05/02 07:42:00;;;;;;;10.43;8.20;;;20.80;94.50;;;;;;5089190;28;20205;-83
2022/05/02 07:44:33;;;;;;;10.48;8.32;;;20.60;94.80;;;;;;5075338;28;20700;-84
2022/05/02 07:47:03;;;;;;;11.18;8.00;;;20.90;95.00;;;;;;5070646;28;20208;-83
2022/05/02 07:49:33;;;;;;;11.88;8.05;;;21.20;94.20;;;;;;5062744;28;20609;-83
2022/05/02 07:52:05;;;;;;;9.63;8.30;;;21.60;93.20;;;;;;5054780;28;20274;-83
2022/05/02 07:54:39;;;;;;;26.50;9.38;;;22.00;92.90;;;;;;5067659;28;20208;-83
2022/05/02 07:57:07;;;;;;;9.60;8.10;;;22.30;92.20;;;;;;5070236;28;20683;-83
2022/05/02 07:59:38;;;;;;;10.93;8.13;;;22.30;91.60;;;;;;5065544;28;20568;-83
2022/05/02 08:02:05;;;;;;;11.25;8.68;;;22.10;90.60;;;;;;5051963;28;20316;-84
2022/05/02 08:04:37;;;;;;;12.18;8.68;;;21.60;90.70;;;;;;5065636;28;20610;-86
2022/05/02 08:07:12;;;;;;;10.30;8.38;;;21.40;91.50;;;;;;5065116;28;20235;-87
2022/05/02 08:10:10;;;;;;;11.35;8.82;;;21.40;91.80;;;;;;5061456;28;20204;-86
2022/05/02 08:12:56;;;;;;;10.10;8.60;;;21.30;91.20;;;;;;5063192;28;20793;-85
2022/05/02 08:15:35;;;;;;;13.48;9.20;;;21.20;91.40;;;;;;5069896;28;20209;-86
2022/05/02 08:18:26;;;;;;;13.90;8.65;;;21.30;91.20;;;;;;5067681;28;20239;-86
2022/05/02 08:20:56;;;;;;;11.52;8.80;;;21.30;90.20;;;;;;5068798;28;20602;-85
2022/05/02 08:29:56;;;;;;;14.27;9.00;;;20.40;87.70;;;;;;5064098;28;20668;-85
2022/05/02 08:32:31;;;;;;;12.43;8.43;;;20.30;86.70;;;;;;5067939;28;20235;-88
2022/05/02 08:34:57;;;;;;;11.25;8.27;;;20.30;89.40;;;;;;5070884;28;20324;-85
2022/05/02 08:37:30;;;;;;;12.25;8.10;;;20.60;89.30;;;;;;5065147;28;20223;-84
2022/05/02 08:40:10;;;;;;;11.40;8.30;;;20.60;88.50;;;;;;5067758;28;20774;-83
2022/05/02 08:42:59;;;;;;;13.63;8.90;;;21.00;86.80;;;;;;5068674;28;20232;-85
2022/05/02 08:46:13;;;;;;;11.10;7.70;;;21.40;88.20;;;;;;5074920;28;20212;-84
2022/05/02 08:52:27;;;;;;;8.77;7.75;;;21.20;79.10;;;;;;5070928;28;20211;-83
2022/05/02 08:55:25;;;;;;;11.20;8.07;;;20.80;81.40;;;;;;5061716;28;20262;-85
2022/05/02 08:58:14;;;;;;;9.65;7.32;;;20.70;79.80;;;;;;5070548;28;20259;-84
2022/05/02 09:01:09;;;;;;;10.57;7.18;;;20.60;81.40;;;;;;5067554;28;20649;-84
2022/05/02 09:03:54;;;;;;;10.00;7.57;;;20.50;82.70;;;;;;5065921;28;20287;-84
2022/05/02 09:06:49;;;;;;;11.75;7.90;;;20.50;81.10;;;;;;5061315;28;20216;-83
2022/05/02 09:09:57;;;;;;;10.40;7.90;;;20.30;81.20;;;;;;5067575;28;20215;-83
2022/05/02 09:12:24;;;;;;;9.90;6.88;;;20.30;82.20;;;;;;5036817;28;20537;-83
2022/05/02 09:15:11;;;;;;;10.80;7.28;;;20.50;81.70;;;;;;5049838;28;20212;-84
2022/05/02 09:18:19;;;;;;;9.98;6.57;;;20.60;80.20;;;;;;5066823;28;20253;-85
2022/05/02 09:21:05;;;;;;;10.85;6.53;;;20.40;79.10;;;;;;5069906;28;20466;-84
2022/05/02 09:23:37;;;;;;;8.45;6.28;;;20.10;77.90;;;;;;5063235;28;20271;-85
2022/05/02 09:26:23;;;;;;;10.48;7.35;;;19.90;79.00;;;;;;5065521;28;20223;-85
2022/05/02 09:28:53;;;;;;;9.65;7.57;;;19.80;78.90;;;;;;5046573;28;20468;-82
2022/05/02 09:32:08;;;;;;;11.82;7.55;;;19.70;80.50;;;;;;5066761;28;20212;-82
2022/05/02 09:34:58;;;;;;;11.80;7.43;;;19.70;80.80;;;;;;5049481;28;20205;-84
2022/05/02 09:37:59;;;;;;;10.52;8.00;;;19.80;80.40;;;;;;5064065;28;20274;-83
2022/05/02 09:40:35;;;;;;;12.13;8.05;;;19.50;80.20;;;;;;5057038;28;20689;-82
2022/05/02 09:43:05;;;;;;;11.90;8.02;;;19.40;81.30;;;;;;5043123;28;20298;-82
2022/05/02 09:52:11;;;;;;;14.38;9.00;;;19.50;82.20;;;;;;5047501;28;20209;-83
2022/05/02 09:58:35;;;;;;;13.30;7.78;;;19.40;79.90;;;;;;5046690;28;20201;-83
2022/05/02 10:01:21;;;;;;;10.98;7.63;;;19.30;80.60;;;;;;5045763;28;20300;-83
2022/05/02 10:04:26;;;;;;;12.77;8.10;;;19.20;81.50;;;;;;5047801;28;20293;-82
2022/05/02 10:07:06;;;;;;;11.35;8.13;;;19.10;82.60;;;;;;5043407;28;20209;-82
2022/05/02 10:09:43;;;;;;;11.57;8.15;;;19.10;82.40;;;;;;5045965;28;20839;-84
2022/05/02 10:12:36;;;;;;;10.55;7.90;;;19.20;81.90;;;;;;5047740;28;20270;-83
2022/05/02 10:15:27;;;;;;;9.30;8.02;;;19.20;82.30;;;;;;5045835;28;20237;-83
2022/05/02 10:18:16;;;;;;;10.13;7.70;;;19.30;82.00;;;;;;5034888;28;20223;-82
2022/05/02 10:20:53;;;;;;;11.90;8.73;;;19.40;81.50;;;;;;5045192;28;20212;-83
2022/05/02 10:23:52;;;;;;;11.02;8.70;;;19.50;81.70;;;;;;5047681;28;20277;-85
2022/05/02 10:26:35;;;;;;;14.00;9.73;;;19.50;80.00;;;;;;5058828;28;20214;-85
2022/05/02 10:29:24;;;;;;;11.20;8.50;;;19.40;79.90;;;;;;5043538;28;20232;-83
2022/05/02 10:32:10;;;;;;;12.00;9.20;;;19.20;80.00;;;;;;5041180;28;20249;-84
2022/05/02 10:34:41;;;;;;;14.30;9.43;;;19.10;79.60;;;;;;5045588;28;20198;-84
2022/05/02 10:37:09;;;;;;;11.18;8.85;;;19.20;80.50;;;;;;5058231;28;20210;-81
2022/05/02 10:39:47;;;;;;;11.80;8.68;;;19.30;80.80;;;;;;5044653;28;20572;-82
2022/05/02 10:42:20;;;;;;;12.38;9.07;;;19.50;81.20;;;;;;5039791;28;20232;-83
2022/05/02 10:44:57;;;;;;;10.50;8.18;;;19.60;80.10;;;;;;5048336;28;20225;-84
2022/05/02 10:47:27;;;;;;;11.35;9.18;;;19.60;79.20;;;;;;5045991;28;20215;-86
2022/05/02 10:49:56;;;;;;;13.18;9.65;;;19.30;78.20;;;;;;5046185;28;20256;-83
2022/05/02 10:52:47;;;;;;;14.18;9.40;;;19.30;79.00;;;;;;5048047;28;20209;-86
2022/05/02 10:55:17;;;;;;;13.15;8.90;;;19.10;78.20;;;;;;5041519;28;20202;-85
2022/05/02 10:57:59;;;;;;;15.98;9.05;;;19.00;78.60;;;;;;5046222;28;20252;-83
2022/05/02 11:00:28;;;;;;;14.15;8.85;;;19.00;78.90;;;;;;5042712;28;20948;-81
2022/05/02 11:03:24;;;;;;;14.15;9.13;;;19.00;80.20;;;;;;5048015;28;20302;-81
2022/05/02 11:06:09;;;;;;;12.23;9.23;;;19.20;80.70;;;;;;5047330;28;20571;-82
2022/05/02 11:08:57;;;;;;;14.27;9.10;;;19.40;81.20;;;;;;5047421;28;20212;-88
2022/05/02 11:11:42;;;;;;;17.08;10.05;;;19.70;79.80;;;;;;5048096;28;20205;-84
2022/05/02 11:14:29;;;;;;;13.57;9.38;;;20.10;79.60;;;;;;5047782;28;20291;-85
2022/05/02 11:17:07;;;;;;;14.90;9.73;;;20.30;80.40;;;;;;5051983;28;20213;-87
2022/05/02 11:22:35;;;;;;;13.90;8.88;;;20.40;77.60;;;;;;5053239;28;20224;-83
2022/05/02 11:25:18;;;;;;;14.15;9.55;;;20.00;77.30;;;;;;5053727;28;20243;-83
2022/05/02 11:28:11;;;;;;;16.30;9.75;;;19.60;78.20;;;;;;5041364;28;20317;-82
2022/05/02 11:31:18;;;;;;;12.65;9.10;;;19.60;78.90;;;;;;5053877;28;20209;-82
2022/05/02 11:34:02;;;;;;;12.63;9.20;;;19.70;78.30;;;;;;5032944;28;20604;-82
2022/05/02 11:36:33;;;;;;;11.85;9.18;;;19.70;78.50;;;;;;5055218;28;20221;-83
2022/05/02 11:39:10;;;;;;;12.57;9.73;;;19.80;78.60;;;;;;5051477;28;20316;-84
2022/05/02 11:41:43;;;;;;;13.10;9.68;;;19.80;78.30;;;;;;5037890;28;20657;-84
2022/05/02 11:44:13;;;;;;;13.35;9.20;;;19.80;77.80;;;;;;5065584;28;20867;-87
2022/05/02 11:47:03;;;;;;;15.45;9.70;;;19.80;78.00;;;;;;5033755;28;20210;-87
2022/05/02 11:49:30;;;;;;;16.27;9.80;;;20.00;80.00;;;;;;5063962;28;20206;-86
2022/05/02 11:52:01;;;;;;;10.10;8.48;;;20.20;79.50;;;;;;5049093;28;20209;-85
2022/05/02 11:54:27;;;;;;;9.60;8.27;;;20.60;78.50;;;;;;5050432;28;20232;-87
2022/05/02 11:56:55;;;;;;;11.60;8.77;;;20.70;78.30;;;;;;5050289;28;20197;-84
2022/05/02 11:59:26;;;;;;;12.98;9.70;;;20.90;79.00;;;;;;5054084;28;20220;-85
2022/05/02 12:02:03;;;;;;;13.30;9.43;;;20.80;78.60;;;;;;5071002;28;20612;-86
2022/05/02 12:04:36;;;;;;;14.75;8.85;;;21.00;80.40;;;;;;5064255;28;20700;-86
2022/05/02 12:07:05;;;;;;;12.70;8.77;;;21.20;79.30;;;;;;5071590;28;20201;-87
2022/05/02 12:09:34;;;;;;;13.40;9.27;;;21.20;77.80;;;;;;5053416;28;20235;-85
2022/05/02 12:12:07;;;;;;;13.00;8.75;;;21.00;77.60;;;;;;5052564;28;20201;-85
2022/05/02 12:14:35;;;;;;;12.68;8.43;;;21.10;76.70;;;;;;5048713;28;20259;-85
2022/05/02 12:17:09;;;;;;;9.90;8.40;;;21.20;77.00;;;;;;5069225;28;20208;-84
2022/05/02 12:19:41;;;;;;;12.25;8.90;;;21.40;76.40;;;;;;5053189;28;20209;-86
2022/05/02 12:22:16;;;;;;;10.82;8.05;;;21.50;75.40;;;;;;5040837;28;20209;-84
2022/05/02 12:24:49;;;;;;;9.68;8.18;;;21.70;73.80;;;;;;5068972;28;20211;-83
2022/05/02 12:27:25;;;;;;;10.10;7.88;;;21.80;73.90;;;;;;5051841;28;20295;-83
2022/05/02 12:30:00;;;;;;;12.45;8.68;;;22.00;74.10;;;;;;5066772;28;20259;-81
2022/05/02 12:32:31;;;;;;;13.57;9.10;;;22.20;74.60;;;;;;5051434;28;20288;-85
2022/05/02 12:35:00;;;;;;;12.90;8.32;;;22.20;74.30;;;;;;5066559;28;20228;-84
2022/05/02 12:37:39;;;;;;;13.38;9.00;;;22.20;73.40;;;;;;5049831;28;20216;-83
2022/05/02 12:40:13;;;;;;;9.98;8.00;;;22.40;72.90;;;;;;5062824;28;20301;-84
2022/05/02 12:42:47;;;;;;;13.43;8.13;;;22.40;73.20;;;;;;5063489;28;20229;-84
2022/05/02 12:45:17;;;;;;;13.70;8.95;;;22.40;72.50;;;;;;5047520;28;20203;-83
2022/05/02 12:47:56;;;;;;;11.40;8.13;;;22.30;71.00;;;;;;5069825;28;20220;-83
2022/05/02 12:50:28;;;;;;;8.55;7.55;;;22.40;70.20;;;;;;5064922;28;20223;-85
2022/05/02 12:53:05;;;;;;;11.30;8.25;;;22.40;70.20;;;;;;5065823;28;20201;-84
2022/05/02 12:55:36;;;;;;;12.50;8.40;;;22.50;70.50;;;;;;5063114;28;20212;-82
2022/05/02 13:00:55;;;;;;;15.10;8.20;;;22.50;69.80;;;;;;5068083;28;20283;-84
2022/05/02 13:03:28;;;;;;;18.45;8.73;;;22.50;69.60;;;;;;5072101;28;20226;-82
2022/05/02 13:06:07;;;;;;;10.77;7.75;;;22.30;68.70;;;;;;5060682;28;20211;-82
2022/05/02 13:08:41;;;;;;;12.20;8.20;;;22.30;69.10;;;;;;5070392;28;20274;-84
2022/05/02 13:11:20;;;;;;;10.93;8.25;;;22.30;70.00;;;;;;5072153;28;20278;-84
2022/05/02 13:13:50;;;;;;;11.52;8.00;;;22.20;70.30;;;;;;5054156;28;20247;-85
2022/05/02 13:16:25;;;;;;;8.93;6.68;;;22.20;70.60;;;;;;5046748;28;20232;-86
2022/05/02 13:18:53;;;;;;;8.82;6.78;;;22.30;68.40;;;;;;5065926;28;20254;-83
2022/05/02 13:21:21;;;;;;;8.57;7.18;;;22.20;67.50;;;;;;5058551;28;20618;-85
2022/05/02 13:23:56;;;;;;;9.82;7.45;;;22.30;66.90;;;;;;5064393;28;20220;-85
2022/05/02 13:26:33;;;;;;;8.85;6.72;;;22.50;65.80;;;;;;5064603;28;20212;-85
2022/05/02 13:29:00;;;;;;;12.25;6.80;;;22.50;65.20;;;;;;5068186;28;20623;-81
2022/05/02 13:31:54;;;;;;;8.75;6.60;;;22.70;64.60;;;;;;5050408;28;20208;-83
2022/05/02 13:34:40;;;;;;;9.75;7.10;;;22.90;63.50;;;;;;5060848;28;20220;-86
2022/05/02 13:37:07;;;;;;;11.88;7.05;;;22.90;62.70;;;;;;5048074;28;20250;-83
2022/05/02 13:40:02;;;;;;;8.70;7.25;;;23.00;64.20;;;;;;5059971;28;20290;-83
2022/05/02 13:42:52;;;;;;;9.65;7.60;;;23.10;65.00;;;;;;5036609;28;20641;-85
2022/05/02 13:45:19;;;;;;;10.65;7.85;;;22.90;65.40;;;;;;5057491;28;20208;-82
2022/05/02 13:48:12;;;;;;;11.38;7.40;;;22.80;66.30;;;;;;5064640;28;20241;-84
2022/05/02 13:51:00;;;;;;;12.25;7.57;;;22.70;66.20;;;;;;5068026;28;20216;-84
2022/05/02 13:53:44;;;;;;;10.98;6.75;;;22.80;66.00;;;;;;5049564;28;20370;-83